createdAt,value
2022-08-21T00:04:48.159Z,6.93
2022-08-21T00:09:57.603Z,8.27
2022-08-21T00:14:59.852Z,6.68
2022-08-21T00:20:02.598Z,5.05
2022-08-21T00:25:05.968Z,6.45
2022-08-21T00:30:08.538Z,9.00
2022-08-21T00:35:13.425Z,7.32
2022-08-21T00:40:18.351Z,9.80
2022-08-21T00:45:20.140Z,5.65
2022-08-21T00:50:23.700Z,7.32
2022-08-21T00:55:25.613Z,7.30
2022-08-21T01:00:32.007Z,8.10
2022-08-21T01:05:33.639Z,6.57
2022-08-21T01:10:36.669Z,8.48
2022-08-21T01:15:45.053Z,7.15
2022-08-21T01:21:07.096Z,7.70
2022-08-21T01:26:09.307Z,7.63
2022-08-21T01:31:14.556Z,6.50
2022-08-21T01:36:16.327Z,6.28
2022-08-21T01:41:17.904Z,6.03
2022-08-21T01:46:19.998Z,6.88
2022-08-21T01:51:21.647Z,7.45
2022-08-21T01:56:23.506Z,5.57
2022-08-21T02:01:25.407Z,7.93
2022-08-21T02:06:28.106Z,9.27
2022-08-21T02:11:29.967Z,6.47
2022-08-21T02:16:31.616Z,7.68
2022-08-21T02:21:34.796Z,5.95
2022-08-21T02:26:36.366Z,6.70
2022-08-21T02:31:37.876Z,7.70
2022-08-21T02:36:39.338Z,5.57
2022-08-21T02:41:40.852Z,7.13
2022-08-21T02:46:42.348Z,7.97
2022-08-21T02:51:44.185Z,5.65
2022-08-21T02:56:45.788Z,6.93
2022-08-21T03:01:47.441Z,6.38
2022-08-21T03:06:49.347Z,9.15
2022-08-21T03:11:52.272Z,5.95
2022-08-21T03:16:53.811Z,4.03
2022-08-21T03:21:55.292Z,6.10
2022-08-21T03:26:56.823Z,5.70
2022-08-21T03:31:58.516Z,5.97
2022-08-21T03:36:59.997Z,4.20
2022-08-21T03:42:02.049Z,12.00
2022-08-21T03:47:03.879Z,5.53
2022-08-21T03:52:05.914Z,8.52
2022-08-21T03:57:07.529Z,4.53
2022-08-21T04:02:09.267Z,4.07
2022-08-21T04:07:10.989Z,4.35
2022-08-21T04:12:12.584Z,4.95
2022-08-21T04:17:14.124Z,4.57
2022-08-21T04:22:17.222Z,3.53
2022-08-21T04:27:19.023Z,6.28
2022-08-21T04:32:24.789Z,4.90
2022-08-21T04:37:26.413Z,4.63
2022-08-21T04:42:29.114Z,4.57
2022-08-21T04:47:52.176Z,6.05
2022-08-21T04:52:52.600Z,5.10
2022-08-21T04:57:55.533Z,6.65
2022-08-21T05:03:00.304Z,6.88
2022-08-21T05:08:03.415Z,5.90
2022-08-21T05:13:07.952Z,7.47
2022-08-21T05:18:09.779Z,6.45
2022-08-21T05:23:13.483Z,8.50
2022-08-21T05:28:15.108Z,11.93
2022-08-21T05:33:16.769Z,12.45
2022-08-21T05:38:20.551Z,5.40
2022-08-21T05:43:22.388Z,7.55
2022-08-21T05:48:25.317Z,6.78
2022-08-21T05:53:27.244Z,6.22
2022-08-21T05:58:28.954Z,2.95
2022-08-21T06:03:34.998Z,6.60
2022-08-21T06:08:37.388Z,5.75
2022-08-21T06:13:39.890Z,5.43
2022-08-21T06:18:41.996Z,4.72
2022-08-21T06:23:43.532Z,3.45
2022-08-21T06:28:45.136Z,4.32
2022-08-21T06:33:47.359Z,3.85
2022-08-21T06:38:51.721Z,6.57
2022-08-21T06:43:54.020Z,3.97
2022-08-21T06:48:56.134Z,4.50
2022-08-21T06:53:59.451Z,4.00
2022-08-21T06:59:01.118Z,4.53
2022-08-21T07:04:02.942Z,5.68
2022-08-21T07:09:04.695Z,2.10
2022-08-21T07:14:06.241Z,6.50
2022-08-21T07:19:07.751Z,5.70
2022-08-21T07:24:09.815Z,5.40
2022-08-21T07:29:11.384Z,3.38
2022-08-21T07:34:14.188Z,2.45
2022-08-21T07:39:15.727Z,4.95
2022-08-21T07:44:17.873Z,5.53
2022-08-21T07:49:20.658Z,2.25
2022-08-21T07:54:33.338Z,2.50
2022-08-21T07:59:35.500Z,2.72
2022-08-21T08:04:37.063Z,4.30
2022-08-21T08:09:52.053Z,3.70
2022-08-21T08:14:53.516Z,6.00
2022-08-21T08:19:55.244Z,2.00
2022-08-21T08:24:57.768Z,3.65
2022-08-21T08:29:59.299Z,2.10
2022-08-21T08:35:00.878Z,1.40
2022-08-21T08:40:04.600Z,2.40
2022-08-21T08:45:17.481Z,1.02
2022-08-21T08:50:26.268Z,1.90
2022-08-21T08:55:41.049Z,2.53
2022-08-21T09:00:53.312Z,2.35
2022-08-21T09:06:19.572Z,1.65
2022-08-21T09:11:39.875Z,2.30
2022-08-21T09:17:00.968Z,1.98
2022-08-21T09:22:30.249Z,3.83
2022-08-21T09:27:32.372Z,1.90
2022-08-21T09:32:37.421Z,2.08
2022-08-21T09:37:58.996Z,2.53
2022-08-21T09:43:07.263Z,2.25
2022-08-21T09:48:10.161Z,1.60
2022-08-21T09:53:35.427Z,1.10
2022-08-21T09:58:39.468Z,2.53
2022-08-21T10:03:41.148Z,1.90
2022-08-21T10:08:42.781Z,4.03
2022-08-21T10:13:57.133Z,1.42
2022-08-21T10:19:43.786Z,3.05
2022-08-21T10:24:56.830Z,1.98
2022-08-21T10:30:04.553Z,2.50
2022-08-21T10:35:22.934Z,4.10
2022-08-21T10:40:49.723Z,4.65
2022-08-21T10:45:54.490Z,2.28
2022-08-21T10:51:18.958Z,2.35
2022-08-21T10:56:35.260Z,2.63
2022-08-21T11:01:53.892Z,1.48
2022-08-21T11:07:07.126Z,0.90
2022-08-21T11:12:34.664Z,2.55
2022-08-21T11:17:48.461Z,6.97
2022-08-21T11:23:11.752Z,3.50
2022-08-21T11:28:58.530Z,1.60
2022-08-21T11:34:06.019Z,3.42
2022-08-21T11:39:13.990Z,2.80
2022-08-21T11:44:37.501Z,4.15
2022-08-21T11:50:02.683Z,3.97
2022-08-21T11:55:22.006Z,2.92
2022-08-21T12:00:36.916Z,2.42
2022-08-21T12:05:44.844Z,1.20
2022-08-21T12:11:11.529Z,3.58
2022-08-21T12:16:16.597Z,3.70
2022-08-21T12:21:27.975Z,1.67
2022-08-21T12:26:56.921Z,2.15
2022-08-21T12:32:02.362Z,0.67
2022-08-21T12:37:15.019Z,2.58
2022-08-21T12:42:23.982Z,3.22
2022-08-21T12:47:34.148Z,2.72
2022-08-21T12:53:06.544Z,2.28
2022-08-21T12:58:24.940Z,2.05
2022-08-21T13:03:27.060Z,2.83
2022-08-21T13:08:29.076Z,2.95
2022-08-21T13:13:31.386Z,2.03
2022-08-21T13:18:52.302Z,2.90
2022-08-21T13:23:55.913Z,1.50
2022-08-21T13:29:08.198Z,3.97
2022-08-21T13:34:11.721Z,4.45
2022-08-21T13:39:17.968Z,2.53
2022-08-21T13:44:23.029Z,3.55
2022-08-21T13:49:34.260Z,1.35
2022-08-21T13:54:41.107Z,1.73
2022-08-21T13:59:42.837Z,2.38
2022-08-21T14:04:55.228Z,0.90
2022-08-21T14:09:57.007Z,1.27
2022-08-21T14:15:02.913Z,2.53
2022-08-21T14:20:09.644Z,2.03
2022-08-21T14:25:15.832Z,1.80
2022-08-21T14:30:28.873Z,1.70
2022-08-21T14:35:30.664Z,1.63
2022-08-21T14:40:34.196Z,2.85
2022-08-21T14:45:37.499Z,1.35
2022-08-21T14:50:39.527Z,1.73
2022-08-21T14:56:00.160Z,2.15
2022-08-21T15:01:04.682Z,0.85
2022-08-21T15:06:07.584Z,2.38
2022-08-21T15:11:41.701Z,2.03
2022-08-21T15:16:42.801Z,1.52
2022-08-21T15:21:44.433Z,1.13
2022-08-21T15:26:46.449Z,1.80
2022-08-21T15:32:04.105Z,2.25
2022-08-21T15:37:08.791Z,1.02
2022-08-21T15:42:12.647Z,2.60
2022-08-21T15:47:18.089Z,1.23
2022-08-21T15:52:22.359Z,2.17
2022-08-21T15:57:25.205Z,2.63
2022-08-21T16:02:31.118Z,6.18
2022-08-21T16:07:32.641Z,1.25
2022-08-21T16:12:38.948Z,1.15
2022-08-21T16:17:45.248Z,1.42
2022-08-21T16:22:47.243Z,1.98
2022-08-21T16:27:52.617Z,1.23
2022-08-21T16:32:59.712Z,4.85
2022-08-21T16:38:01.572Z,1.50
2022-08-21T16:43:03.964Z,1.95
2022-08-21T16:48:09.572Z,2.33
2022-08-21T16:53:11.219Z,1.90
2022-08-21T16:58:34.742Z,3.30
2022-08-21T17:03:42.583Z,2.50
2022-08-21T17:08:44.751Z,2.63
2022-08-21T17:13:46.314Z,4.45
2022-08-21T17:18:47.824Z,5.60
2022-08-21T17:23:53.622Z,2.47
2022-08-21T17:28:55.275Z,1.40
2022-08-21T17:33:57.019Z,4.15
2022-08-21T17:38:59.234Z,2.88
2022-08-21T17:44:06.221Z,6.60
2022-08-21T17:49:09.010Z,3.08
2022-08-21T17:54:10.679Z,3.25
2022-08-21T17:59:12.780Z,3.25
2022-08-21T18:04:14.787Z,3.10
2022-08-21T18:09:18.320Z,3.17
2022-08-21T18:14:25.068Z,1.73
2022-08-21T18:19:27.033Z,3.03
2022-08-21T18:24:28.556Z,3.33
2022-08-21T18:29:30.113Z,2.80
2022-08-21T18:34:35.614Z,4.93
2022-08-21T18:39:37.879Z,3.03
2022-08-21T18:44:43.884Z,1.73
2022-08-21T18:49:45.430Z,2.63
2022-08-21T18:54:46.999Z,2.83
2022-08-21T18:59:51.394Z,4.07
2022-08-21T19:04:53.525Z,6.35
2022-08-21T19:10:24.414Z,3.60
2022-08-21T19:15:22.566Z,4.53
2022-08-21T19:20:36.333Z,6.70
2022-08-21T19:25:41.894Z,6.05
2022-08-21T19:30:51.150Z,3.10
2022-08-21T19:35:53.324Z,4.45
2022-08-21T19:40:55.127Z,1.95
2022-08-21T19:45:58.427Z,4.07
2022-08-21T19:50:59.933Z,6.07
2022-08-21T19:56:01.602Z,3.85
2022-08-21T20:01:11.451Z,2.88
2022-08-21T20:06:18.741Z,5.32
2022-08-21T20:11:27.327Z,4.47
2022-08-21T20:16:30.097Z,2.33
2022-08-21T20:21:44.356Z,3.03
2022-08-21T20:26:49.250Z,3.13
2022-08-21T20:31:51.282Z,3.25
2022-08-21T20:36:53.310Z,6.88
2022-08-21T20:41:55.513Z,2.25
2022-08-21T20:46:58.507Z,4.60
2022-08-21T20:52:00.887Z,2.10
2022-08-21T20:57:24.469Z,3.75
2022-08-21T21:02:59.569Z,3.55
2022-08-21T21:08:07.807Z,5.07
2022-08-21T21:13:38.197Z,3.10
2022-08-21T21:18:55.026Z,3.72
2022-08-21T21:24:04.836Z,1.90
2022-08-21T21:29:38.846Z,2.25
2022-08-21T21:34:46.470Z,4.35
2022-08-21T21:40:15.960Z,3.42
2022-08-21T21:45:28.322Z,3.40
2022-08-21T21:51:12.061Z,1.70
2022-08-21T21:56:29.493Z,3.40
2022-08-21T22:01:54.092Z,7.13
2022-08-21T22:07:19.671Z,3.00
2022-08-21T22:18:25.621Z,2.00
2022-08-21T22:23:31.995Z,4.63
2022-08-21T22:28:39.259Z,5.75
2022-08-21T22:33:41.721Z,3.53
2022-08-21T22:38:44.402Z,3.10
2022-08-21T22:44:03.903Z,2.10
2022-08-21T22:49:11.813Z,7.90
2022-08-21T22:54:23.768Z,3.72
2022-08-21T22:59:31.188Z,2.50
2022-08-21T23:04:33.761Z,2.05
2022-08-21T23:09:47.060Z,2.80
2022-08-21T23:14:54.679Z,3.15
2022-08-21T23:20:23.145Z,3.95
2022-08-21T23:25:41.370Z,3.13
2022-08-21T23:30:50.514Z,6.85
2022-08-21T23:36:37.172Z,5.80
2022-08-21T23:41:47.301Z,2.67
2022-08-21T23:47:11.684Z,6.63
2022-08-21T23:53:01.254Z,2.53
2022-08-21T23:58:19.129Z,3.00
